sensor_id;sensor_type;location;lat;lon;timestamp;P1;durP1;ratioP1;P2;durP2;ratioP2
61038;SDS011;46919;45.816;3.104;2022-12-18T00:01:36;81.53;;;25.75;;
61038;SDS011;46919;45.816;3.104;2022-12-18T00:04:03;120.38;;;28.67;;
61038;SDS011;46919;45.816;3.104;2022-12-18T00:06:30;83.50;;;26.77;;
61038;SDS011;46919;45.816;3.104;2022-12-18T00:08:57;69.05;;;25.83;;
61038;SDS011;46919;45.816;3.104;2022-12-18T00:11:24;74.32;;;24.30;;
61038;SDS011;46919;45.816;3.104;2022-12-18T00:13:53;115.95;;;27.38;;
61038;SDS011;46919;45.816;3.104;2022-12-18T00:16:20;94.93;;;27.35;;
61038;SDS011;46919;45.816;3.104;2022-12-18T00:18:48;94.75;;;27.02;;
61038;SDS011;46919;45.816;3.104;2022-12-18T00:21:14;99.60;;;24.50;;
61038;SDS011;46919;45.816;3.104;2022-12-18T00:23:40;156.75;;;27.20;;
61038;SDS011;46919;45.816;3.104;2022-12-18T00:26:14;124.35;;;27.10;;
61038;SDS011;46919;45.816;3.104;2022-12-18T00:28:45;142.48;;;27.10;;
61038;SDS011;46919;45.816;3.104;2022-12-18T00:31:12;108.88;;;25.50;;
61038;SDS011;46919;45.816;3.104;2022-12-18T00:33:39;143.98;;;25.27;;
61038;SDS011;46919;45.816;3.104;2022-12-18T00:36:13;92.50;;;23.48;;
61038;SDS011;46919;45.816;3.104;2022-12-18T00:38:40;72.47;;;22.48;;
61038;SDS011;46919;45.816;3.104;2022-12-18T00:41:06;79.25;;;22.05;;
61038;SDS011;46919;45.816;3.104;2022-12-18T00:43:33;56.10;;;20.13;;
61038;SDS011;46919;45.816;3.104;2022-12-18T00:45:59;92.05;;;20.73;;
61038;SDS011;46919;45.816;3.104;2022-12-18T00:48:24;67.68;;;21.55;;
61038;SDS011;46919;45.816;3.104;2022-12-18T00:50:50;98.20;;;25.13;;
61038;SDS011;46919;45.816;3.104;2022-12-18T00:53:16;71.60;;;22.98;;
61038;SDS011;46919;45.816;3.104;2022-12-18T00:55:42;82.00;;;24.67;;
61038;SDS011;46919;45.816;3.104;2022-12-18T00:58:08;99.82;;;25.25;;
61038;SDS011;46919;45.816;3.104;2022-12-18T01:00:34;93.93;;;24.88;;
61038;SDS011;46919;45.816;3.104;2022-12-18T01:03:00;52.95;;;24.98;;
61038;SDS011;46919;45.816;3.104;2022-12-18T01:05:26;65.38;;;20.48;;
61038;SDS011;46919;45.816;3.104;2022-12-18T01:07:52;140.38;;;24.00;;
61038;SDS011;46919;45.816;3.104;2022-12-18T01:10:17;94.28;;;22.77;;
61038;SDS011;46919;45.816;3.104;2022-12-18T01:12:43;75.30;;;25.55;;
61038;SDS011;46919;45.816;3.104;2022-12-18T01:15:09;98.00;;;25.15;;
61038;SDS011;46919;45.816;3.104;2022-12-18T01:17:36;51.25;;;21.73;;
61038;SDS011;46919;45.816;3.104;2022-12-18T01:20:02;51.92;;;22.95;;
61038;SDS011;46919;45.816;3.104;2022-12-18T01:22:28;77.13;;;23.33;;
61038;SDS011;46919;45.816;3.104;2022-12-18T01:24:53;45.85;;;20.38;;
61038;SDS011;46919;45.816;3.104;2022-12-18T01:27:18;60.88;;;26.33;;
61038;SDS011;46919;45.816;3.104;2022-12-18T01:29:44;29.95;;;14.00;;
61038;SDS011;46919;45.816;3.104;2022-12-18T01:32:09;13.40;;;7.32;;
61038;SDS011;46919;45.816;3.104;2022-12-18T01:34:35;12.05;;;6.95;;
61038;SDS011;46919;45.816;3.104;2022-12-18T01:37:05;24.65;;;12.48;;
61038;SDS011;46919;45.816;3.104;2022-12-18T01:39:30;30.95;;;14.35;;
61038;SDS011;46919;45.816;3.104;2022-12-18T01:41:57;28.30;;;14.32;;
61038;SDS011;46919;45.816;3.104;2022-12-18T01:50:06;39.92;;;18.83;;
61038;SDS011;46919;45.816;3.104;2022-12-18T01:52:39;39.90;;;16.52;;
61038;SDS011;46919;45.816;3.104;2022-12-18T01:55:07;28.92;;;14.40;;
61038;SDS011;46919;45.816;3.104;2022-12-18T01:57:34;33.42;;;14.70;;
61038;SDS011;46919;45.816;3.104;2022-12-18T02:00:01;38.55;;;17.63;;
61038;SDS011;46919;45.816;3.104;2022-12-18T02:02:30;25.90;;;13.82;;
61038;SDS011;46919;45.816;3.104;2022-12-18T02:04:55;28.00;;;13.15;;
61038;SDS011;46919;45.816;3.104;2022-12-18T02:10:34;27.83;;;14.40;;
61038;SDS011;46919;45.816;3.104;2022-12-18T02:15:42;33.13;;;14.57;;
61038;SDS011;46919;45.816;3.104;2022-12-18T02:18:20;25.55;;;13.40;;
61038;SDS011;46919;45.816;3.104;2022-12-18T02:20:53;22.77;;;10.95;;
61038;SDS011;46919;45.816;3.104;2022-12-18T02:28:54;15.80;;;7.68;;
61038;SDS011;46919;45.816;3.104;2022-12-18T02:31:24;9.77;;;4.55;;
61038;SDS011;46919;45.816;3.104;2022-12-18T02:33:53;11.75;;;6.00;;
61038;SDS011;46919;45.816;3.104;2022-12-18T02:36:22;11.88;;;5.40;;
61038;SDS011;46919;45.816;3.104;2022-12-18T02:38:49;17.92;;;8.45;;
61038;SDS011;46919;45.816;3.104;2022-12-18T02:41:17;21.67;;;10.27;;
61038;SDS011;46919;45.816;3.104;2022-12-18T02:43:47;21.85;;;9.45;;
61038;SDS011;46919;45.816;3.104;2022-12-18T02:48:48;19.25;;;9.50;;
61038;SDS011;46919;45.816;3.104;2022-12-18T02:51:22;15.38;;;6.50;;
61038;SDS011;46919;45.816;3.104;2022-12-18T02:54:08;15.73;;;7.07;;
61038;SDS011;46919;45.816;3.104;2022-12-18T02:56:55;13.32;;;6.88;;
61038;SDS011;46919;45.816;3.104;2022-12-18T02:59:45;16.60;;;7.80;;
61038;SDS011;46919;45.816;3.104;2022-12-18T03:02:20;14.38;;;6.95;;
61038;SDS011;46919;45.816;3.104;2022-12-18T03:05:02;12.88;;;6.57;;
61038;SDS011;46919;45.816;3.104;2022-12-18T03:07:44;19.10;;;9.20;;
61038;SDS011;46919;45.816;3.104;2022-12-18T03:10:16;22.70;;;10.45;;
61038;SDS011;46919;45.816;3.104;2022-12-18T03:12:47;20.27;;;9.10;;
61038;SDS011;46919;45.816;3.104;2022-12-18T03:15:25;15.80;;;7.60;;
61038;SDS011;46919;45.816;3.104;2022-12-18T03:18:06;12.75;;;6.45;;
61038;SDS011;46919;45.816;3.104;2022-12-18T03:20:35;14.23;;;6.78;;
61038;SDS011;46919;45.816;3.104;2022-12-18T03:23:09;9.90;;;5.65;;
61038;SDS011;46919;45.816;3.104;2022-12-18T03:25:39;12.05;;;5.43;;
61038;SDS011;46919;45.816;3.104;2022-12-18T03:28:06;11.10;;;6.15;;
61038;SDS011;46919;45.816;3.104;2022-12-18T03:30:45;12.18;;;6.28;;
61038;SDS011;46919;45.816;3.104;2022-12-18T03:35:44;12.48;;;6.35;;
61038;SDS011;46919;45.816;3.104;2022-12-18T03:38:10;14.90;;;6.47;;
61038;SDS011;46919;45.816;3.104;2022-12-18T03:43:16;16.02;;;7.18;;
61038;SDS011;46919;45.816;3.104;2022-12-18T03:45:54;18.47;;;8.67;;
61038;SDS011;46919;45.816;3.104;2022-12-18T03:48:31;16.48;;;7.68;;
61038;SDS011;46919;45.816;3.104;2022-12-18T03:51:10;12.60;;;6.28;;
61038;SDS011;46919;45.816;3.104;2022-12-18T03:53:48;12.55;;;6.82;;
61038;SDS011;46919;45.816;3.104;2022-12-18T03:56:19;16.70;;;7.50;;
61038;SDS011;46919;45.816;3.104;2022-12-18T03:58:47;11.73;;;6.75;;
61038;SDS011;46919;45.816;3.104;2022-12-18T04:01:14;13.18;;;6.10;;
61038;SDS011;46919;45.816;3.104;2022-12-18T04:03:42;13.38;;;6.30;;
61038;SDS011;46919;45.816;3.104;2022-12-18T04:06:11;15.63;;;7.70;;
61038;SDS011;46919;45.816;3.104;2022-12-18T04:08:36;12.18;;;6.00;;
61038;SDS011;46919;45.816;3.104;2022-12-18T04:11:04;9.40;;;4.97;;
61038;SDS011;46919;45.816;3.104;2022-12-18T04:13:35;17.08;;;7.85;;
61038;SDS011;46919;45.816;3.104;2022-12-18T04:16:01;19.17;;;8.60;;
61038;SDS011;46919;45.816;3.104;2022-12-18T04:18:27;14.10;;;7.13;;
61038;SDS011;46919;45.816;3.104;2022-12-18T04:20:53;16.45;;;7.57;;
61038;SDS011;46919;45.816;3.104;2022-12-18T04:23:18;15.02;;;7.68;;
61038;SDS011;46919;45.816;3.104;2022-12-18T04:25:43;11.40;;;6.03;;
61038;SDS011;46919;45.816;3.104;2022-12-18T04:28:09;7.65;;;4.35;;
61038;SDS011;46919;45.816;3.104;2022-12-18T04:30:34;8.80;;;5.45;;
61038;SDS011;46919;45.816;3.104;2022-12-18T04:33:00;12.80;;;6.03;;
61038;SDS011;46919;45.816;3.104;2022-12-18T04:35:25;12.60;;;6.30;;
61038;SDS011;46919;45.816;3.104;2022-12-18T04:37:51;12.77;;;6.40;;
61038;SDS011;46919;45.816;3.104;2022-12-18T04:40:16;14.25;;;6.63;;
61038;SDS011;46919;45.816;3.104;2022-12-18T04:42:42;15.38;;;6.93;;
61038;SDS011;46919;45.816;3.104;2022-12-18T04:45:07;11.68;;;6.00;;
61038;SDS011;46919;45.816;3.104;2022-12-18T04:47:33;14.27;;;6.47;;
61038;SDS011;46919;45.816;3.104;2022-12-18T04:50:00;11.15;;;5.15;;
61038;SDS011;46919;45.816;3.104;2022-12-18T04:52:25;9.73;;;5.40;;
61038;SDS011;46919;45.816;3.104;2022-12-18T04:54:51;15.00;;;6.35;;
61038;SDS011;46919;45.816;3.104;2022-12-18T04:57:16;14.60;;;6.30;;
61038;SDS011;46919;45.816;3.104;2022-12-18T04:59:43;14.90;;;6.60;;
61038;SDS011;46919;45.816;3.104;2022-12-18T05:02:08;11.45;;;5.45;;
61038;SDS011;46919;45.816;3.104;2022-12-18T05:04:34;11.88;;;5.88;;
61038;SDS011;46919;45.816;3.104;2022-12-18T05:06:59;10.18;;;5.72;;
61038;SDS011;46919;45.816;3.104;2022-12-18T05:09:24;11.63;;;5.30;;
61038;SDS011;46919;45.816;3.104;2022-12-18T05:11:50;10.80;;;5.18;;
61038;SDS011;46919;45.816;3.104;2022-12-18T05:14:15;10.75;;;5.10;;
61038;SDS011;46919;45.816;3.104;2022-12-18T05:16:41;10.98;;;5.78;;
61038;SDS011;46919;45.816;3.104;2022-12-18T05:19:06;10.88;;;5.57;;
61038;SDS011;46919;45.816;3.104;2022-12-18T05:21:32;11.02;;;5.30;;
61038;SDS011;46919;45.816;3.104;2022-12-18T05:23:57;9.57;;;4.68;;
61038;SDS011;46919;45.816;3.104;2022-12-18T05:26:22;9.70;;;4.95;;
61038;SDS011;46919;45.816;3.104;2022-12-18T05:28:48;9.73;;;5.20;;
61038;SDS011;46919;45.816;3.104;2022-12-18T05:31:13;7.78;;;4.05;;
61038;SDS011;46919;45.816;3.104;2022-12-18T05:33:39;12.88;;;5.18;;
61038;SDS011;46919;45.816;3.104;2022-12-18T05:36:05;8.82;;;4.55;;
61038;SDS011;46919;45.816;3.104;2022-12-18T05:38:33;8.18;;;4.63;;
61038;SDS011;46919;45.816;3.104;2022-12-18T05:40:59;8.00;;;4.45;;
61038;SDS011;46919;45.816;3.104;2022-12-18T05:43:25;9.30;;;4.88;;
61038;SDS011;46919;45.816;3.104;2022-12-18T05:45:52;9.80;;;4.53;;
61038;SDS011;46919;45.816;3.104;2022-12-18T05:48:17;12.35;;;4.80;;
61038;SDS011;46919;45.816;3.104;2022-12-18T05:50:44;9.75;;;4.38;;
61038;SDS011;46919;45.816;3.104;2022-12-18T05:53:11;7.80;;;4.10;;
61038;SDS011;46919;45.816;3.104;2022-12-18T05:55:38;10.25;;;4.43;;
61038;SDS011;46919;45.816;3.104;2022-12-18T05:58:05;10.60;;;5.25;;
61038;SDS011;46919;45.816;3.104;2022-12-18T06:00:32;12.40;;;5.10;;
61038;SDS011;46919;45.816;3.104;2022-12-18T06:02:59;8.35;;;5.03;;
61038;SDS011;46919;45.816;3.104;2022-12-18T06:05:26;10.93;;;4.97;;
61038;SDS011;46919;45.816;3.104;2022-12-18T06:07:51;9.70;;;4.72;;
61038;SDS011;46919;45.816;3.104;2022-12-18T06:10:17;8.70;;;4.20;;
61038;SDS011;46919;45.816;3.104;2022-12-18T06:12:42;6.95;;;4.13;;
61038;SDS011;46919;45.816;3.104;2022-12-18T06:15:08;6.38;;;3.67;;
61038;SDS011;46919;45.816;3.104;2022-12-18T06:17:34;6.80;;;3.53;;
61038;SDS011;46919;45.816;3.104;2022-12-18T06:19:59;11.98;;;5.95;;
61038;SDS011;46919;45.816;3.104;2022-12-18T06:22:26;10.65;;;4.68;;
61038;SDS011;46919;45.816;3.104;2022-12-18T06:24:51;8.95;;;4.32;;
61038;SDS011;46919;45.816;3.104;2022-12-18T06:27:17;7.75;;;4.53;;
61038;SDS011;46919;45.816;3.104;2022-12-18T06:29:42;8.00;;;3.88;;
61038;SDS011;46919;45.816;3.104;2022-12-18T06:32:07;6.40;;;3.22;;
61038;SDS011;46919;45.816;3.104;2022-12-18T06:34:33;8.00;;;3.85;;
61038;SDS011;46919;45.816;3.104;2022-12-18T06:36:59;7.53;;;3.70;;
61038;SDS011;46919;45.816;3.104;2022-12-18T06:39:26;5.70;;;3.10;;
61038;SDS011;46919;45.816;3.104;2022-12-18T06:41:52;7.97;;;3.35;;
61038;SDS011;46919;45.816;3.104;2022-12-18T06:44:18;8.27;;;4.20;;
61038;SDS011;46919;45.816;3.104;2022-12-18T06:46:43;10.88;;;3.65;;
61038;SDS011;46919;45.816;3.104;2022-12-18T06:49:09;9.10;;;4.28;;
61038;SDS011;46919;45.816;3.104;2022-12-18T06:51:34;10.38;;;4.78;;
61038;SDS011;46919;45.816;3.104;2022-12-18T06:54:00;9.80;;;5.03;;
61038;SDS011;46919;45.816;3.104;2022-12-18T06:56:26;10.15;;;4.88;;
61038;SDS011;46919;45.816;3.104;2022-12-18T06:58:51;9.63;;;4.70;;
61038;SDS011;46919;45.816;3.104;2022-12-18T07:01:16;10.85;;;4.78;;
61038;SDS011;46919;45.816;3.104;2022-12-18T07:03:42;8.52;;;4.50;;
61038;SDS011;46919;45.816;3.104;2022-12-18T07:06:15;10.40;;;4.97;;
61038;SDS011;46919;45.816;3.104;2022-12-18T07:08:42;9.70;;;5.00;;
61038;SDS011;46919;45.816;3.104;2022-12-18T07:11:08;8.88;;;5.13;;
61038;SDS011;46919;45.816;3.104;2022-12-18T07:13:33;7.20;;;4.25;;
61038;SDS011;46919;45.816;3.104;2022-12-18T07:16:08;8.73;;;4.78;;
61038;SDS011;46919;45.816;3.104;2022-12-18T07:18:41;9.57;;;4.80;;
61038;SDS011;46919;45.816;3.104;2022-12-18T07:21:08;6.50;;;3.88;;
61038;SDS011;46919;45.816;3.104;2022-12-18T07:23:36;9.30;;;4.78;;
61038;SDS011;46919;45.816;3.104;2022-12-18T07:26:03;7.50;;;4.40;;
61038;SDS011;46919;45.816;3.104;2022-12-18T07:28:29;10.07;;;4.72;;
61038;SDS011;46919;45.816;3.104;2022-12-18T07:30:55;12.50;;;5.97;;
61038;SDS011;46919;45.816;3.104;2022-12-18T07:33:21;9.98;;;5.40;;
61038;SDS011;46919;45.816;3.104;2022-12-18T07:35:46;11.82;;;6.03;;
61038;SDS011;46919;45.816;3.104;2022-12-18T07:38:11;12.07;;;6.07;;
61038;SDS011;46919;45.816;3.104;2022-12-18T07:40:37;15.90;;;7.78;;
61038;SDS011;46919;45.816;3.104;2022-12-18T07:43:02;15.98;;;7.35;;
61038;SDS011;46919;45.816;3.104;2022-12-18T07:45:27;15.40;;;8.55;;
61038;SDS011;46919;45.816;3.104;2022-12-18T07:47:56;15.52;;;6.95;;
61038;SDS011;46919;45.816;3.104;2022-12-18T07:50:21;16.95;;;9.02;;
61038;SDS011;46919;45.816;3.104;2022-12-18T07:52:46;15.05;;;8.57;;
61038;SDS011;46919;45.816;3.104;2022-12-18T07:55:12;17.02;;;8.68;;
61038;SDS011;46919;45.816;3.104;2022-12-18T07:57:37;16.48;;;9.52;;
61038;SDS011;46919;45.816;3.104;2022-12-18T08:00:03;23.05;;;10.70;;
61038;SDS011;46919;45.816;3.104;2022-12-18T08:02:30;17.88;;;9.52;;
61038;SDS011;46919;45.816;3.104;2022-12-18T08:04:56;16.05;;;8.55;;
61038;SDS011;46919;45.816;3.104;2022-12-18T08:07:21;20.75;;;10.40;;
61038;SDS011;46919;45.816;3.104;2022-12-18T08:09:47;17.20;;;9.02;;
61038;SDS011;46919;45.816;3.104;2022-12-18T08:12:12;16.77;;;9.00;;
61038;SDS011;46919;45.816;3.104;2022-12-18T08:14:38;19.00;;;9.10;;
61038;SDS011;46919;45.816;3.104;2022-12-18T08:17:03;19.00;;;10.05;;
61038;SDS011;46919;45.816;3.104;2022-12-18T08:19:28;23.83;;;11.80;;
61038;SDS011;46919;45.816;3.104;2022-12-18T08:21:54;21.20;;;10.95;;
61038;SDS011;46919;45.816;3.104;2022-12-18T08:24:19;19.25;;;11.45;;
61038;SDS011;46919;45.816;3.104;2022-12-18T08:26:44;27.85;;;13.25;;
61038;SDS011;46919;45.816;3.104;2022-12-18T08:29:10;34.08;;;17.88;;
61038;SDS011;46919;45.816;3.104;2022-12-18T08:31:35;38.67;;;21.63;;
61038;SDS011;46919;45.816;3.104;2022-12-18T08:34:02;28.83;;;13.85;;
61038;SDS011;46919;45.816;3.104;2022-12-18T08:36:27;25.05;;;14.27;;
61038;SDS011;46919;45.816;3.104;2022-12-18T08:38:53;28.90;;;15.23;;
61038;SDS011;46919;45.816;3.104;2022-12-18T08:41:19;24.20;;;14.95;;
61038;SDS011;46919;45.816;3.104;2022-12-18T08:43:45;39.58;;;19.48;;
61038;SDS011;46919;45.816;3.104;2022-12-18T08:46:34;36.17;;;20.33;;
61038;SDS011;46919;45.816;3.104;2022-12-18T08:49:01;42.17;;;21.25;;
61038;SDS011;46919;45.816;3.104;2022-12-18T08:51:26;35.40;;;20.27;;
61038;SDS011;46919;45.816;3.104;2022-12-18T08:53:52;37.60;;;19.80;;
61038;SDS011;46919;45.816;3.104;2022-12-18T08:56:17;38.65;;;19.67;;
61038;SDS011;46919;45.816;3.104;2022-12-18T08:58:43;34.88;;;19.23;;
61038;SDS011;46919;45.816;3.104;2022-12-18T09:01:09;43.25;;;21.65;;
61038;SDS011;46919;45.816;3.104;2022-12-18T09:03:36;35.90;;;20.60;;
61038;SDS011;46919;45.816;3.104;2022-12-18T09:06:01;37.05;;;20.60;;
61038;SDS011;46919;45.816;3.104;2022-12-18T09:08:27;36.97;;;20.75;;
61038;SDS011;46919;45.816;3.104;2022-12-18T09:10:53;31.77;;;18.38;;
61038;SDS011;46919;45.816;3.104;2022-12-18T09:13:18;35.40;;;19.40;;
61038;SDS011;46919;45.816;3.104;2022-12-18T09:15:45;29.08;;;17.55;;
61038;SDS011;46919;45.816;3.104;2022-12-18T09:18:12;27.45;;;15.68;;
61038;SDS011;46919;45.816;3.104;2022-12-18T09:20:39;26.00;;;14.90;;
61038;SDS011;46919;45.816;3.104;2022-12-18T09:23:05;26.75;;;14.85;;
61038;SDS011;46919;45.816;3.104;2022-12-18T09:25:31;24.63;;;13.77;;
61038;SDS011;46919;45.816;3.104;2022-12-18T09:28:17;23.60;;;13.13;;
61038;SDS011;46919;45.816;3.104;2022-12-18T09:30:44;20.42;;;11.45;;
61038;SDS011;46919;45.816;3.104;2022-12-18T09:33:12;17.35;;;10.75;;
61038;SDS011;46919;45.816;3.104;2022-12-18T09:35:38;22.88;;;13.85;;
61038;SDS011;46919;45.816;3.104;2022-12-18T09:38:03;26.25;;;14.57;;
61038;SDS011;46919;45.816;3.104;2022-12-18T09:40:32;20.23;;;12.55;;
61038;SDS011;46919;45.816;3.104;2022-12-18T09:43:10;19.27;;;12.80;;
61038;SDS011;46919;45.816;3.104;2022-12-18T09:45:43;21.48;;;12.35;;
61038;SDS011;46919;45.816;3.104;2022-12-18T09:48:18;20.52;;;12.85;;
61038;SDS011;46919;45.816;3.104;2022-12-18T09:50:47;23.08;;;13.95;;
61038;SDS011;46919;45.816;3.104;2022-12-18T09:53:22;29.75;;;15.38;;
61038;SDS011;46919;45.816;3.104;2022-12-18T09:55:51;26.35;;;15.05;;
61038;SDS011;46919;45.816;3.104;2022-12-18T09:58:32;28.63;;;16.02;;
61038;SDS011;46919;45.816;3.104;2022-12-18T10:01:11;30.67;;;16.80;;
61038;SDS011;46919;45.816;3.104;2022-12-18T10:03:43;31.77;;;16.83;;
61038;SDS011;46919;45.816;3.104;2022-12-18T10:08:45;27.25;;;14.43;;
61038;SDS011;46919;45.816;3.104;2022-12-18T10:22:38;20.55;;;11.38;;
61038;SDS011;46919;45.816;3.104;2022-12-18T10:25:17;15.82;;;9.75;;
61038;SDS011;46919;45.816;3.104;2022-12-18T10:28:00;17.25;;;10.10;;
61038;SDS011;46919;45.816;3.104;2022-12-18T10:30:34;18.63;;;10.93;;
61038;SDS011;46919;45.816;3.104;2022-12-18T10:33:00;19.35;;;11.38;;
61038;SDS011;46919;45.816;3.104;2022-12-18T10:35:27;24.25;;;15.05;;
61038;SDS011;46919;45.816;3.104;2022-12-18T10:38:03;22.42;;;13.60;;
61038;SDS011;46919;45.816;3.104;2022-12-18T10:40:31;15.63;;;9.38;;
61038;SDS011;46919;45.816;3.104;2022-12-18T10:43:10;14.57;;;9.82;;
61038;SDS011;46919;45.816;3.104;2022-12-18T10:45:37;20.15;;;11.18;;
61038;SDS011;46919;45.816;3.104;2022-12-18T10:48:02;16.98;;;10.30;;
61038;SDS011;46919;45.816;3.104;2022-12-18T10:50:32;19.83;;;11.32;;
61038;SDS011;46919;45.816;3.104;2022-12-18T10:52:59;15.55;;;10.68;;
61038;SDS011;46919;45.816;3.104;2022-12-18T10:55:27;16.63;;;9.82;;
61038;SDS011;46919;45.816;3.104;2022-12-18T10:58:18;15.70;;;9.65;;
61038;SDS011;46919;45.816;3.104;2022-12-18T11:01:02;17.08;;;10.43;;
61038;SDS011;46919;45.816;3.104;2022-12-18T11:03:40;18.38;;;10.60;;
61038;SDS011;46919;45.816;3.104;2022-12-18T11:06:10;20.08;;;11.23;;
61038;SDS011;46919;45.816;3.104;2022-12-18T11:08:41;16.90;;;9.82;;
61038;SDS011;46919;45.816;3.104;2022-12-18T11:11:15;15.82;;;9.45;;
61038;SDS011;46919;45.816;3.104;2022-12-18T11:13:57;15.55;;;9.07;;
61038;SDS011;46919;45.816;3.104;2022-12-18T11:16:29;14.15;;;8.98;;
61038;SDS011;46919;45.816;3.104;2022-12-18T11:21:49;14.25;;;9.18;;
61038;SDS011;46919;45.816;3.104;2022-12-18T11:24:18;20.38;;;9.52;;
61038;SDS011;46919;45.816;3.104;2022-12-18T11:26:53;11.63;;;7.82;;
61038;SDS011;46919;45.816;3.104;2022-12-18T11:29:23;14.57;;;8.60;;
61038;SDS011;46919;45.816;3.104;2022-12-18T11:32:12;13.60;;;8.65;;
61038;SDS011;46919;45.816;3.104;2022-12-18T11:34:50;13.82;;;8.50;;
61038;SDS011;46919;45.816;3.104;2022-12-18T11:37:23;14.70;;;9.68;;
61038;SDS011;46919;45.816;3.104;2022-12-18T11:39:50;14.40;;;10.40;;
61038;SDS011;46919;45.816;3.104;2022-12-18T11:50:21;12.48;;;8.40;;
61038;SDS011;46919;45.816;3.104;2022-12-18T11:52:50;12.50;;;7.85;;
61038;SDS011;46919;45.816;3.104;2022-12-18T12:03:45;14.10;;;8.50;;
61038;SDS011;46919;45.816;3.104;2022-12-18T12:26:20;11.50;;;7.60;;
61038;SDS011;46919;45.816;3.104;2022-12-18T12:28:57;13.60;;;8.25;;
61038;SDS011;46919;45.816;3.104;2022-12-18T12:31:36;15.63;;;8.90;;
61038;SDS011;46919;45.816;3.104;2022-12-18T12:37:11;14.20;;;9.68;;
61038;SDS011;46919;45.816;3.104;2022-12-18T12:39:56;11.88;;;8.02;;
61038;SDS011;46919;45.816;3.104;2022-12-18T12:42:31;13.98;;;6.90;;
61038;SDS011;46919;45.816;3.104;2022-12-18T12:45:21;10.25;;;6.28;;
61038;SDS011;46919;45.816;3.104;2022-12-18T12:47:53;23.55;;;13.63;;
61038;SDS011;46919;45.816;3.104;2022-12-18T12:50:20;13.25;;;8.13;;
61038;SDS011;46919;45.816;3.104;2022-12-18T12:52:49;12.05;;;7.20;;
61038;SDS011;46919;45.816;3.104;2022-12-18T12:55:24;7.95;;;3.63;;
61038;SDS011;46919;45.816;3.104;2022-12-18T12:58:00;8.00;;;3.20;;
61038;SDS011;46919;45.816;3.104;2022-12-18T13:00:45;5.15;;;2.40;;
61038;SDS011;46919;45.816;3.104;2022-12-18T13:03:27;4.07;;;2.35;;
61038;SDS011;46919;45.816;3.104;2022-12-18T13:06:14;3.47;;;1.35;;
61038;SDS011;46919;45.816;3.104;2022-12-18T13:08:54;2.95;;;1.45;;
61038;SDS011;46919;45.816;3.104;2022-12-18T13:11:40;1.98;;;1.30;;
61038;SDS011;46919;45.816;3.104;2022-12-18T13:14:28;2.90;;;1.35;;
61038;SDS011;46919;45.816;3.104;2022-12-18T13:17:14;2.33;;;1.17;;
61038;SDS011;46919;45.816;3.104;2022-12-18T13:19:48;1.88;;;1.40;;
61038;SDS011;46919;45.816;3.104;2022-12-18T13:22:31;2.10;;;1.73;;
61038;SDS011;46919;45.816;3.104;2022-12-18T13:25:00;2.30;;;1.50;;
61038;SDS011;46919;45.816;3.104;2022-12-18T13:38:22;3.28;;;1.88;;
61038;SDS011;46919;45.816;3.104;2022-12-18T13:41:00;2.20;;;1.48;;
61038;SDS011;46919;45.816;3.104;2022-12-18T13:43:28;3.47;;;1.50;;
61038;SDS011;46919;45.816;3.104;2022-12-18T13:51:31;5.88;;;2.05;;
61038;SDS011;46919;45.816;3.104;2022-12-18T13:54:05;3.20;;;1.70;;
61038;SDS011;46919;45.816;3.104;2022-12-18T13:56:43;4.53;;;1.20;;
61038;SDS011;46919;45.816;3.104;2022-12-18T14:01:42;2.25;;;1.45;;
61038;SDS011;46919;45.816;3.104;2022-12-18T14:04:10;1.83;;;1.20;;
61038;SDS011;46919;45.816;3.104;2022-12-18T14:06:46;3.38;;;2.03;;
61038;SDS011;46919;45.816;3.104;2022-12-18T14:09:15;2.78;;;1.55;;
61038;SDS011;46919;45.816;3.104;2022-12-18T14:11:46;2.20;;;1.60;;
61038;SDS011;46919;45.816;3.104;2022-12-18T14:14:16;3.15;;;1.60;;
61038;SDS011;46919;45.816;3.104;2022-12-18T14:16:43;6.20;;;1.90;;
61038;SDS011;46919;45.816;3.104;2022-12-18T14:19:11;3.28;;;1.60;;
61038;SDS011;46919;45.816;3.104;2022-12-18T14:21:40;2.55;;;1.88;;
61038;SDS011;46919;45.816;3.104;2022-12-18T14:24:13;3.90;;;2.05;;
61038;SDS011;46919;45.816;3.104;2022-12-18T14:26:40;4.15;;;1.77;;
61038;SDS011;46919;45.816;3.104;2022-12-18T14:29:24;3.17;;;1.73;;
61038;SDS011;46919;45.816;3.104;2022-12-18T14:32:04;1.92;;;1.55;;
61038;SDS011;46919;45.816;3.104;2022-12-18T14:34:36;4.93;;;1.60;;
61038;SDS011;46919;45.816;3.104;2022-12-18T14:37:01;4.13;;;1.70;;
61038;SDS011;46919;45.816;3.104;2022-12-18T14:39:27;3.22;;;1.70;;
61038;SDS011;46919;45.816;3.104;2022-12-18T14:41:53;4.88;;;2.10;;
61038;SDS011;46919;45.816;3.104;2022-12-18T14:44:18;2.95;;;1.40;;
61038;SDS011;46919;45.816;3.104;2022-12-18T14:46:46;2.80;;;1.63;;
61038;SDS011;46919;45.816;3.104;2022-12-18T14:51:59;2.10;;;1.90;;
61038;SDS011;46919;45.816;3.104;2022-12-18T14:54:26;2.45;;;1.75;;
61038;SDS011;46919;45.816;3.104;2022-12-18T15:00:04;2.17;;;1.80;;
61038;SDS011;46919;45.816;3.104;2022-12-18T15:02:31;2.70;;;1.92;;
61038;SDS011;46919;45.816;3.104;2022-12-18T15:05:03;3.75;;;1.85;;
61038;SDS011;46919;45.816;3.104;2022-12-18T15:07:49;4.35;;;1.70;;
61038;SDS011;46919;45.816;3.104;2022-12-18T15:10:18;2.47;;;1.63;;
61038;SDS011;46919;45.816;3.104;2022-12-18T15:12:47;1.60;;;1.48;;
61038;SDS011;46919;45.816;3.104;2022-12-18T15:20:40;2.15;;;1.50;;
61038;SDS011;46919;45.816;3.104;2022-12-18T15:23:17;2.53;;;1.73;;
61038;SDS011;46919;45.816;3.104;2022-12-18T15:25:43;3.15;;;2.30;;
61038;SDS011;46919;45.816;3.104;2022-12-18T15:28:19;3.50;;;1.92;;
61038;SDS011;46919;45.816;3.104;2022-12-18T15:30:58;2.10;;;1.70;;
61038;SDS011;46919;45.816;3.104;2022-12-18T15:33:25;2.45;;;2.03;;
61038;SDS011;46919;45.816;3.104;2022-12-18T15:35:58;3.22;;;2.10;;
61038;SDS011;46919;45.816;3.104;2022-12-18T15:38:25;2.78;;;2.10;;
61038;SDS011;46919;45.816;3.104;2022-12-18T15:40:52;2.70;;;1.67;;
61038;SDS011;46919;45.816;3.104;2022-12-18T15:43:20;2.92;;;1.50;;
61038;SDS011;46919;45.816;3.104;2022-12-18T15:46:06;2.60;;;1.85;;
61038;SDS011;46919;45.816;3.104;2022-12-18T15:48:38;3.05;;;1.88;;
61038;SDS011;46919;45.816;3.104;2022-12-18T15:51:09;2.58;;;2.00;;
61038;SDS011;46919;45.816;3.104;2022-12-18T15:53:42;2.28;;;1.90;;
61038;SDS011;46919;45.816;3.104;2022-12-18T15:56:11;2.63;;;2.00;;
61038;SDS011;46919;45.816;3.104;2022-12-18T15:58:56;2.50;;;1.90;;
61038;SDS011;46919;45.816;3.104;2022-12-18T16:01:23;2.17;;;1.98;;
61038;SDS011;46919;45.816;3.104;2022-12-18T16:03:50;4.93;;;1.90;;
61038;SDS011;46919;45.816;3.104;2022-12-18T16:06:15;4.55;;;1.92;;
61038;SDS011;46919;45.816;3.104;2022-12-18T16:08:41;7.43;;;5.43;;
61038;SDS011;46919;45.816;3.104;2022-12-18T16:11:10;3.10;;;2.80;;
61038;SDS011;46919;45.816;3.104;2022-12-18T16:14:05;4.28;;;3.00;;
61038;SDS011;46919;45.816;3.104;2022-12-18T16:16:54;3.10;;;2.30;;
61038;SDS011;46919;45.816;3.104;2022-12-18T16:19:31;2.78;;;2.05;;
61038;SDS011;46919;45.816;3.104;2022-12-18T16:21:57;3.40;;;2.28;;
61038;SDS011;46919;45.816;3.104;2022-12-18T16:24:24;2.78;;;1.75;;
61038;SDS011;46919;45.816;3.104;2022-12-18T16:26:53;3.08;;;2.00;;
61038;SDS011;46919;45.816;3.104;2022-12-18T16:29:23;3.20;;;2.10;;
61038;SDS011;46919;45.816;3.104;2022-12-18T16:31:52;2.95;;;2.33;;
61038;SDS011;46919;45.816;3.104;2022-12-18T16:36:54;6.35;;;2.08;;
61038;SDS011;46919;45.816;3.104;2022-12-18T16:39:20;5.45;;;2.47;;
61038;SDS011;46919;45.816;3.104;2022-12-18T16:41:46;3.97;;;2.78;;